sensor_id;sensor_type;location;lat;lon;timestamp;P1;durP1;ratioP1;P2;durP2;ratioP2
74926;SDS011;63488;48.092;-1.640;2023-01-10T00:00:05;8.45;;;2.20;;
74926;SDS011;63488;48.092;-1.640;2023-01-10T00:02:30;7.88;;;2.90;;
74926;SDS011;63488;48.092;-1.640;2023-01-10T00:04:56;10.73;;;2.85;;
74926;SDS011;63488;48.092;-1.640;2023-01-10T00:07:21;9.32;;;3.10;;
74926;SDS011;63488;48.092;-1.640;2023-01-10T00:09:46;10.80;;;2.67;;
74926;SDS011;63488;48.092;-1.640;2023-01-10T00:12:12;9.45;;;2.80;;
74926;SDS011;63488;48.092;-1.640;2023-01-10T00:14:56;9.90;;;2.90;;
74926;SDS011;63488;48.092;-1.640;2023-01-10T00:17:21;11.63;;;3.10;;
74926;SDS011;63488;48.092;-1.640;2023-01-10T00:19:46;7.25;;;3.05;;
74926;SDS011;63488;48.092;-1.640;2023-01-10T00:22:12;9.93;;;3.13;;
74926;SDS011;63488;48.092;-1.640;2023-01-10T00:24:37;8.70;;;2.55;;
74926;SDS011;63488;48.092;-1.640;2023-01-10T00:27:03;9.98;;;2.72;;
74926;SDS011;63488;48.092;-1.640;2023-01-10T00:29:28;13.27;;;2.97;;
74926;SDS011;63488;48.092;-1.640;2023-01-10T00:31:55;12.52;;;2.70;;
74926;SDS011;63488;48.092;-1.640;2023-01-10T00:34:21;10.25;;;2.55;;
74926;SDS011;63488;48.092;-1.640;2023-01-10T00:36:46;8.55;;;2.50;;
74926;SDS011;63488;48.092;-1.640;2023-01-10T00:39:12;7.60;;;2.53;;
74926;SDS011;63488;48.092;-1.640;2023-01-10T00:41:38;10.20;;;2.78;;
74926;SDS011;63488;48.092;-1.640;2023-01-10T00:44:22;7.75;;;2.17;;
74926;SDS011;63488;48.092;-1.640;2023-01-10T00:46:47;7.82;;;2.00;;
74926;SDS011;63488;48.092;-1.640;2023-01-10T00:49:13;9.27;;;2.63;;
74926;SDS011;63488;48.092;-1.640;2023-01-10T00:51:40;9.55;;;2.95;;
74926;SDS011;63488;48.092;-1.640;2023-01-10T00:54:07;9.45;;;2.72;;
74926;SDS011;63488;48.092;-1.640;2023-01-10T00:56:32;7.93;;;2.53;;
74926;SDS011;63488;48.092;-1.640;2023-01-10T00:58:58;7.35;;;2.92;;
74926;SDS011;63488;48.092;-1.640;2023-01-10T01:01:23;9.18;;;2.40;;
74926;SDS011;63488;48.092;-1.640;2023-01-10T01:03:48;7.80;;;2.50;;
74926;SDS011;63488;48.092;-1.640;2023-01-10T01:06:14;10.75;;;2.17;;
74926;SDS011;63488;48.092;-1.640;2023-01-10T01:08:39;7.43;;;2.38;;
74926;SDS011;63488;48.092;-1.640;2023-01-10T01:11:04;8.93;;;2.72;;
74926;SDS011;63488;48.092;-1.640;2023-01-10T01:13:30;8.20;;;2.13;;
74926;SDS011;63488;48.092;-1.640;2023-01-10T01:15:58;8.43;;;2.17;;
74926;SDS011;63488;48.092;-1.640;2023-01-10T01:18:24;8.75;;;2.05;;
74926;SDS011;63488;48.092;-1.640;2023-01-10T01:20:53;6.45;;;2.40;;
74926;SDS011;63488;48.092;-1.640;2023-01-10T01:23:20;8.25;;;2.28;;
74926;SDS011;63488;48.092;-1.640;2023-01-10T01:25:48;11.70;;;2.45;;
74926;SDS011;63488;48.092;-1.640;2023-01-10T01:28:14;8.15;;;1.90;;
74926;SDS011;63488;48.092;-1.640;2023-01-10T01:30:39;10.23;;;2.35;;
74926;SDS011;63488;48.092;-1.640;2023-01-10T01:33:04;9.48;;;2.50;;
74926;SDS011;63488;48.092;-1.640;2023-01-10T01:35:30;10.60;;;2.63;;
74926;SDS011;63488;48.092;-1.640;2023-01-10T01:37:57;9.38;;;2.40;;
74926;SDS011;63488;48.092;-1.640;2023-01-10T01:40:22;11.80;;;2.38;;
74926;SDS011;63488;48.092;-1.640;2023-01-10T01:42:48;9.13;;;2.40;;
74926;SDS011;63488;48.092;-1.640;2023-01-10T01:47:46;9.90;;;2.42;;
74926;SDS011;63488;48.092;-1.640;2023-01-10T01:50:14;10.32;;;2.60;;
74926;SDS011;63488;48.092;-1.640;2023-01-10T01:52:40;6.47;;;2.08;;
74926;SDS011;63488;48.092;-1.640;2023-01-10T01:55:06;11.05;;;2.83;;
74926;SDS011;63488;48.092;-1.640;2023-01-10T01:57:31;8.95;;;2.47;;
74926;SDS011;63488;48.092;-1.640;2023-01-10T01:59:57;9.15;;;2.72;;
74926;SDS011;63488;48.092;-1.640;2023-01-10T02:02:25;8.70;;;2.30;;
74926;SDS011;63488;48.092;-1.640;2023-01-10T02:07:16;12.90;;;2.70;;
74926;SDS011;63488;48.092;-1.640;2023-01-10T02:12:07;8.20;;;2.30;;
74926;SDS011;63488;48.092;-1.640;2023-01-10T02:14:33;10.40;;;2.92;;
74926;SDS011;63488;48.092;-1.640;2023-01-10T02:17:00;7.97;;;2.60;;
74926;SDS011;63488;48.092;-1.640;2023-01-10T02:26:59;10.80;;;2.65;;
74926;SDS011;63488;48.092;-1.640;2023-01-10T02:32:00;10.65;;;2.60;;
74926;SDS011;63488;48.092;-1.640;2023-01-10T02:34:36;10.60;;;2.40;;
74926;SDS011;63488;48.092;-1.640;2023-01-10T02:37:15;9.68;;;2.70;;
74926;SDS011;63488;48.092;-1.640;2023-01-10T02:42:18;9.57;;;2.40;;
74926;SDS011;63488;48.092;-1.640;2023-01-10T02:47:15;10.40;;;2.58;;
74926;SDS011;63488;48.092;-1.640;2023-01-10T02:49:44;8.35;;;2.03;;
74926;SDS011;63488;48.092;-1.640;2023-01-10T02:54:35;7.47;;;2.45;;
74926;SDS011;63488;48.092;-1.640;2023-01-10T03:07:55;10.35;;;2.70;;
74926;SDS011;63488;48.092;-1.640;2023-01-10T03:10:29;10.55;;;2.65;;
74926;SDS011;63488;48.092;-1.640;2023-01-10T03:12:57;10.02;;;2.33;;
74926;SDS011;63488;48.092;-1.640;2023-01-10T03:15:29;10.40;;;2.78;;
74926;SDS011;63488;48.092;-1.640;2023-01-10T03:17:56;9.05;;;2.45;;
74926;SDS011;63488;48.092;-1.640;2023-01-10T03:20:23;11.30;;;2.53;;
74926;SDS011;63488;48.092;-1.640;2023-01-10T03:22:49;11.45;;;2.22;;
74926;SDS011;63488;48.092;-1.640;2023-01-10T03:25:15;12.73;;;2.72;;
74926;SDS011;63488;48.092;-1.640;2023-01-10T03:30:26;10.27;;;2.55;;
74926;SDS011;63488;48.092;-1.640;2023-01-10T03:32:53;11.30;;;2.17;;
74926;SDS011;63488;48.092;-1.640;2023-01-10T03:35:19;15.48;;;2.65;;
74926;SDS011;63488;48.092;-1.640;2023-01-10T03:37:53;10.15;;;2.30;;
74926;SDS011;63488;48.092;-1.640;2023-01-10T03:40:22;10.07;;;2.28;;
74926;SDS011;63488;48.092;-1.640;2023-01-10T03:43:07;9.13;;;2.47;;
74926;SDS011;63488;48.092;-1.640;2023-01-10T03:46:01;12.10;;;2.53;;
74926;SDS011;63488;48.092;-1.640;2023-01-10T03:48:29;9.52;;;2.55;;
74926;SDS011;63488;48.092;-1.640;2023-01-10T03:50:56;12.55;;;2.60;;
74926;SDS011;63488;48.092;-1.640;2023-01-10T03:53:23;10.55;;;2.60;;
74926;SDS011;63488;48.092;-1.640;2023-01-10T03:55:48;11.88;;;2.28;;
74926;SDS011;63488;48.092;-1.640;2023-01-10T03:58:13;11.10;;;2.50;;
74926;SDS011;63488;48.092;-1.640;2023-01-10T04:00:41;9.57;;;2.45;;
74926;SDS011;63488;48.092;-1.640;2023-01-10T04:03:06;10.63;;;2.30;;
74926;SDS011;63488;48.092;-1.640;2023-01-10T04:05:33;9.95;;;2.30;;
74926;SDS011;63488;48.092;-1.640;2023-01-10T04:07:59;8.43;;;2.08;;
74926;SDS011;63488;48.092;-1.640;2023-01-10T04:10:24;9.85;;;2.60;;
74926;SDS011;63488;48.092;-1.640;2023-01-10T04:12:51;11.05;;;2.67;;
74926;SDS011;63488;48.092;-1.640;2023-01-10T04:15:16;11.93;;;2.50;;
74926;SDS011;63488;48.092;-1.640;2023-01-10T04:17:42;10.57;;;2.28;;
74926;SDS011;63488;48.092;-1.640;2023-01-10T04:20:07;13.35;;;2.80;;
74926;SDS011;63488;48.092;-1.640;2023-01-10T04:22:33;13.13;;;2.78;;
74926;SDS011;63488;48.092;-1.640;2023-01-10T04:24:58;9.88;;;2.17;;
74926;SDS011;63488;48.092;-1.640;2023-01-10T04:27:23;10.00;;;1.98;;
74926;SDS011;63488;48.092;-1.640;2023-01-10T04:29:49;10.10;;;2.72;;
74926;SDS011;63488;48.092;-1.640;2023-01-10T04:32:14;11.63;;;2.70;;
74926;SDS011;63488;48.092;-1.640;2023-01-10T04:34:39;10.13;;;2.38;;
74926;SDS011;63488;48.092;-1.640;2023-01-10T04:37:05;11.45;;;2.63;;
74926;SDS011;63488;48.092;-1.640;2023-01-10T04:39:30;12.82;;;2.60;;
74926;SDS011;63488;48.092;-1.640;2023-01-10T04:41:55;11.88;;;2.58;;
74926;SDS011;63488;48.092;-1.640;2023-01-10T04:44:21;15.05;;;2.78;;
74926;SDS011;63488;48.092;-1.640;2023-01-10T04:46:46;12.45;;;2.75;;
74926;SDS011;63488;48.092;-1.640;2023-01-10T04:49:12;10.57;;;2.17;;
74926;SDS011;63488;48.092;-1.640;2023-01-10T04:51:37;11.57;;;2.72;;
74926;SDS011;63488;48.092;-1.640;2023-01-10T04:54:02;10.20;;;2.50;;
74926;SDS011;63488;48.092;-1.640;2023-01-10T04:56:28;12.18;;;2.28;;
74926;SDS011;63488;48.092;-1.640;2023-01-10T04:58:53;11.10;;;2.42;;
74926;SDS011;63488;48.092;-1.640;2023-01-10T05:01:20;10.23;;;1.88;;
74926;SDS011;63488;48.092;-1.640;2023-01-10T05:03:46;13.35;;;2.50;;
74926;SDS011;63488;48.092;-1.640;2023-01-10T05:06:12;7.93;;;2.15;;
74926;SDS011;63488;48.092;-1.640;2023-01-10T05:08:38;7.97;;;2.00;;
74926;SDS011;63488;48.092;-1.640;2023-01-10T05:11:03;8.35;;;2.10;;
74926;SDS011;63488;48.092;-1.640;2023-01-10T05:13:28;9.57;;;2.10;;
74926;SDS011;63488;48.092;-1.640;2023-01-10T05:15:54;12.77;;;2.65;;
74926;SDS011;63488;48.092;-1.640;2023-01-10T05:18:20;12.68;;;2.28;;
74926;SDS011;63488;48.092;-1.640;2023-01-10T05:20:46;11.60;;;2.20;;
74926;SDS011;63488;48.092;-1.640;2023-01-10T05:23:11;8.98;;;2.00;;
74926;SDS011;63488;48.092;-1.640;2023-01-10T05:25:36;9.13;;;2.08;;
74926;SDS011;63488;48.092;-1.640;2023-01-10T05:28:02;9.77;;;2.13;;
74926;SDS011;63488;48.092;-1.640;2023-01-10T05:30:27;8.93;;;2.10;;
74926;SDS011;63488;48.092;-1.640;2023-01-10T05:32:52;10.82;;;2.20;;
74926;SDS011;63488;48.092;-1.640;2023-01-10T05:35:18;9.23;;;2.03;;
74926;SDS011;63488;48.092;-1.640;2023-01-10T05:37:43;5.40;;;1.50;;
74926;SDS011;63488;48.092;-1.640;2023-01-10T05:40:09;7.40;;;2.08;;
74926;SDS011;63488;48.092;-1.640;2023-01-10T05:42:35;8.00;;;1.63;;
74926;SDS011;63488;48.092;-1.640;2023-01-10T05:45:00;7.32;;;2.22;;
74926;SDS011;63488;48.092;-1.640;2023-01-10T05:47:26;7.03;;;1.55;;
74926;SDS011;63488;48.092;-1.640;2023-01-10T05:49:51;7.93;;;1.83;;
74926;SDS011;63488;48.092;-1.640;2023-01-10T05:52:16;7.05;;;2.03;;
74926;SDS011;63488;48.092;-1.640;2023-01-10T05:54:42;6.72;;;1.80;;
74926;SDS011;63488;48.092;-1.640;2023-01-10T05:57:07;8.40;;;1.40;;
74926;SDS011;63488;48.092;-1.640;2023-01-10T05:59:32;7.60;;;1.60;;
74926;SDS011;63488;48.092;-1.640;2023-01-10T06:01:57;5.07;;;1.40;;
74926;SDS011;63488;48.092;-1.640;2023-01-10T06:04:23;4.95;;;1.42;;
74926;SDS011;63488;48.092;-1.640;2023-01-10T06:06:48;7.95;;;1.60;;
74926;SDS011;63488;48.092;-1.640;2023-01-10T06:09:13;7.85;;;1.60;;
74926;SDS011;63488;48.092;-1.640;2023-01-10T06:11:39;7.43;;;1.48;;
74926;SDS011;63488;48.092;-1.640;2023-01-10T06:14:04;6.13;;;1.55;;
74926;SDS011;63488;48.092;-1.640;2023-01-10T06:16:31;4.45;;;1.42;;
74926;SDS011;63488;48.092;-1.640;2023-01-10T06:18:57;5.63;;;1.88;;
74926;SDS011;63488;48.092;-1.640;2023-01-10T06:21:22;5.25;;;1.35;;
74926;SDS011;63488;48.092;-1.640;2023-01-10T06:23:47;4.80;;;1.45;;
74926;SDS011;63488;48.092;-1.640;2023-01-10T06:26:13;4.80;;;1.30;;
74926;SDS011;63488;48.092;-1.640;2023-01-10T06:28:38;5.18;;;1.30;;
74926;SDS011;63488;48.092;-1.640;2023-01-10T06:31:05;3.60;;;0.98;;
74926;SDS011;63488;48.092;-1.640;2023-01-10T06:33:31;4.68;;;1.00;;
74926;SDS011;63488;48.092;-1.640;2023-01-10T06:35:56;5.75;;;1.13;;
74926;SDS011;63488;48.092;-1.640;2023-01-10T06:38:21;2.83;;;0.80;;
74926;SDS011;63488;48.092;-1.640;2023-01-10T06:40:46;2.78;;;1.08;;
74926;SDS011;63488;48.092;-1.640;2023-01-10T06:43:12;2.88;;;0.98;;
74926;SDS011;63488;48.092;-1.640;2023-01-10T06:45:37;1.88;;;0.90;;
74926;SDS011;63488;48.092;-1.640;2023-01-10T06:48:03;2.30;;;0.80;;
74926;SDS011;63488;48.092;-1.640;2023-01-10T06:50:28;3.75;;;1.30;;
74926;SDS011;63488;48.092;-1.640;2023-01-10T06:52:56;2.38;;;0.85;;
74926;SDS011;63488;48.092;-1.640;2023-01-10T06:55:22;3.47;;;1.00;;
74926;SDS011;63488;48.092;-1.640;2023-01-10T06:57:47;2.63;;;0.93;;
74926;SDS011;63488;48.092;-1.640;2023-01-10T07:00:12;2.05;;;0.57;;
74926;SDS011;63488;48.092;-1.640;2023-01-10T07:02:38;2.90;;;0.88;;
74926;SDS011;63488;48.092;-1.640;2023-01-10T07:05:03;1.40;;;0.50;;
74926;SDS011;63488;48.092;-1.640;2023-01-10T07:07:29;2.55;;;0.65;;
74926;SDS011;63488;48.092;-1.640;2023-01-10T07:09:54;1.77;;;0.63;;
74926;SDS011;63488;48.092;-1.640;2023-01-10T07:12:19;2.75;;;1.00;;
74926;SDS011;63488;48.092;-1.640;2023-01-10T07:14:45;2.28;;;0.60;;
74926;SDS011;63488;48.092;-1.640;2023-01-10T07:17:10;3.08;;;0.50;;
74926;SDS011;63488;48.092;-1.640;2023-01-10T07:19:35;1.83;;;0.70;;
74926;SDS011;63488;48.092;-1.640;2023-01-10T07:22:01;2.28;;;0.63;;
74926;SDS011;63488;48.092;-1.640;2023-01-10T07:24:26;3.17;;;0.80;;
74926;SDS011;63488;48.092;-1.640;2023-01-10T07:26:53;2.70;;;0.80;;
74926;SDS011;63488;48.092;-1.640;2023-01-10T07:29:19;1.48;;;0.43;;
74926;SDS011;63488;48.092;-1.640;2023-01-10T07:31:44;2.15;;;0.63;;
74926;SDS011;63488;48.092;-1.640;2023-01-10T07:34:09;2.13;;;0.57;;
74926;SDS011;63488;48.092;-1.640;2023-01-10T07:36:35;1.20;;;0.73;;
74926;SDS011;63488;48.092;-1.640;2023-01-10T07:39:01;1.85;;;0.52;;
74926;SDS011;63488;48.092;-1.640;2023-01-10T07:41:26;1.75;;;0.47;;
74926;SDS011;63488;48.092;-1.640;2023-01-10T07:43:52;0.45;;;0.35;;
74926;SDS011;63488;48.092;-1.640;2023-01-10T07:46:17;2.05;;;1.08;;
74926;SDS011;63488;48.092;-1.640;2023-01-10T07:48:42;1.40;;;0.60;;
74926;SDS011;63488;48.092;-1.640;2023-01-10T07:51:10;1.77;;;0.70;;
74926;SDS011;63488;48.092;-1.640;2023-01-10T07:53:35;1.63;;;0.60;;
74926;SDS011;63488;48.092;-1.640;2023-01-10T07:56:02;1.30;;;0.50;;
74926;SDS011;63488;48.092;-1.640;2023-01-10T07:58:29;2.40;;;0.80;;
74926;SDS011;63488;48.092;-1.640;2023-01-10T08:00:56;1.67;;;0.50;;
74926;SDS011;63488;48.092;-1.640;2023-01-10T08:03:21;0.70;;;0.47;;
74926;SDS011;63488;48.092;-1.640;2023-01-10T08:05:48;1.25;;;0.30;;
74926;SDS011;63488;48.092;-1.640;2023-01-10T08:08:13;1.65;;;0.50;;
74926;SDS011;63488;48.092;-1.640;2023-01-10T08:10:41;2.05;;;0.50;;
74926;SDS011;63488;48.092;-1.640;2023-01-10T08:13:08;0.50;;;0.40;;
74926;SDS011;63488;48.092;-1.640;2023-01-10T08:15:33;1.05;;;0.45;;
74926;SDS011;63488;48.092;-1.640;2023-01-10T08:17:59;0.80;;;0.60;;
74926;SDS011;63488;48.092;-1.640;2023-01-10T08:20:25;0.73;;;0.40;;
74926;SDS011;63488;48.092;-1.640;2023-01-10T08:22:50;1.48;;;0.50;;
74926;SDS011;63488;48.092;-1.640;2023-01-10T08:25:16;1.77;;;0.40;;
74926;SDS011;63488;48.092;-1.640;2023-01-10T08:27:41;2.45;;;0.60;;
74926;SDS011;63488;48.092;-1.640;2023-01-10T08:30:06;0.77;;;0.40;;
74926;SDS011;63488;48.092;-1.640;2023-01-10T08:32:32;1.20;;;0.40;;
74926;SDS011;63488;48.092;-1.640;2023-01-10T08:34:57;4.57;;;0.50;;
74926;SDS011;63488;48.092;-1.640;2023-01-10T08:37:23;2.05;;;0.50;;
74926;SDS011;63488;48.092;-1.640;2023-01-10T08:39:48;1.90;;;0.60;;
74926;SDS011;63488;48.092;-1.640;2023-01-10T08:42:14;1.30;;;0.40;;
74926;SDS011;63488;48.092;-1.640;2023-01-10T08:44:41;3.60;;;0.52;;
74926;SDS011;63488;48.092;-1.640;2023-01-10T08:47:06;1.85;;;0.68;;
74926;SDS011;63488;48.092;-1.640;2023-01-10T08:49:31;1.48;;;0.50;;
74926;SDS011;63488;48.092;-1.640;2023-01-10T08:51:57;1.73;;;0.50;;
74926;SDS011;63488;48.092;-1.640;2023-01-10T08:54:23;1.30;;;0.55;;
74926;SDS011;63488;48.092;-1.640;2023-01-10T08:56:49;1.27;;;0.80;;
74926;SDS011;63488;48.092;-1.640;2023-01-10T08:59:15;1.45;;;0.55;;
74926;SDS011;63488;48.092;-1.640;2023-01-10T09:01:40;30.30;;;17.80;;
74926;SDS011;63488;48.092;-1.640;2023-01-10T09:04:05;2.67;;;0.82;;
74926;SDS011;63488;48.092;-1.640;2023-01-10T09:06:31;2.53;;;1.00;;
74926;SDS011;63488;48.092;-1.640;2023-01-10T09:08:56;9.30;;;4.82;;
74926;SDS011;63488;48.092;-1.640;2023-01-10T09:11:21;2.80;;;0.90;;
74926;SDS011;63488;48.092;-1.640;2023-01-10T09:13:48;3.67;;;0.98;;
74926;SDS011;63488;48.092;-1.640;2023-01-10T09:16:13;5.32;;;1.15;;
74926;SDS011;63488;48.092;-1.640;2023-01-10T09:18:38;5.25;;;1.27;;
74926;SDS011;63488;48.092;-1.640;2023-01-10T09:21:04;3.47;;;0.93;;
74926;SDS011;63488;48.092;-1.640;2023-01-10T09:23:30;3.60;;;0.90;;
74926;SDS011;63488;48.092;-1.640;2023-01-10T09:25:55;5.10;;;1.20;;
74926;SDS011;63488;48.092;-1.640;2023-01-10T09:28:22;5.05;;;1.30;;
74926;SDS011;63488;48.092;-1.640;2023-01-10T09:30:49;6.25;;;0.98;;
74926;SDS011;63488;48.092;-1.640;2023-01-10T09:33:14;4.13;;;1.10;;
74926;SDS011;63488;48.092;-1.640;2023-01-10T09:35:40;4.43;;;1.33;;
74926;SDS011;63488;48.092;-1.640;2023-01-10T09:38:07;5.07;;;0.98;;
74926;SDS011;63488;48.092;-1.640;2023-01-10T09:43:04;5.65;;;1.17;;
74926;SDS011;63488;48.092;-1.640;2023-01-10T09:45:41;5.43;;;1.20;;
74926;SDS011;63488;48.092;-1.640;2023-01-10T09:48:26;5.72;;;1.23;;
74926;SDS011;63488;48.092;-1.640;2023-01-10T09:51:10;8.18;;;1.55;;
74926;SDS011;63488;48.092;-1.640;2023-01-10T09:53:40;4.53;;;1.17;;
74926;SDS011;63488;48.092;-1.640;2023-01-10T09:56:06;6.55;;;1.27;;
74926;SDS011;63488;48.092;-1.640;2023-01-10T09:58:33;4.70;;;1.27;;
74926;SDS011;63488;48.092;-1.640;2023-01-10T10:01:09;5.47;;;1.52;;
74926;SDS011;63488;48.092;-1.640;2023-01-10T10:06:19;4.60;;;1.42;;
74926;SDS011;63488;48.092;-1.640;2023-01-10T10:08:46;6.82;;;1.50;;
74926;SDS011;63488;48.092;-1.640;2023-01-10T10:21:42;10.93;;;1.98;;
74926;SDS011;63488;48.092;-1.640;2023-01-10T10:26:56;9.75;;;2.20;;
74926;SDS011;63488;48.092;-1.640;2023-01-10T10:29:33;9.23;;;1.80;;
74926;SDS011;63488;48.092;-1.640;2023-01-10T10:32:25;14.63;;;2.90;;
74926;SDS011;63488;48.092;-1.640;2023-01-10T10:37:35;8.50;;;1.83;;
74926;SDS011;63488;48.092;-1.640;2023-01-10T10:40:03;12.55;;;2.35;;
74926;SDS011;63488;48.092;-1.640;2023-01-10T10:42:37;9.85;;;2.17;;
74926;SDS011;63488;48.092;-1.640;2023-01-10T10:45:17;10.68;;;2.03;;
74926;SDS011;63488;48.092;-1.640;2023-01-10T10:47:44;14.43;;;2.38;;
74926;SDS011;63488;48.092;-1.640;2023-01-10T10:52:40;11.00;;;2.35;;
74926;SDS011;63488;48.092;-1.640;2023-01-10T10:55:06;16.27;;;3.13;;
74926;SDS011;63488;48.092;-1.640;2023-01-10T10:57:32;11.82;;;2.22;;
74926;SDS011;63488;48.092;-1.640;2023-01-10T10:59:59;12.85;;;2.13;;
74926;SDS011;63488;48.092;-1.640;2023-01-10T11:02:28;15.77;;;3.42;;
74926;SDS011;63488;48.092;-1.640;2023-01-10T11:04:57;12.70;;;2.20;;
74926;SDS011;63488;48.092;-1.640;2023-01-10T11:07:24;11.05;;;2.20;;
74926;SDS011;63488;48.092;-1.640;2023-01-10T11:09:52;13.48;;;2.22;;
74926;SDS011;63488;48.092;-1.640;2023-01-10T11:12:18;12.02;;;2.50;;
74926;SDS011;63488;48.092;-1.640;2023-01-10T11:14:48;14.32;;;2.53;;
74926;SDS011;63488;48.092;-1.640;2023-01-10T11:17:24;11.70;;;2.40;;
74926;SDS011;63488;48.092;-1.640;2023-01-10T11:20:32;12.80;;;2.33;;
74926;SDS011;63488;48.092;-1.640;2023-01-10T11:22:42;15.02;;;2.85;;
74926;SDS011;63488;48.092;-1.640;2023-01-10T11:25:15;14.45;;;2.50;;
74926;SDS011;63488;48.092;-1.640;2023-01-10T11:27:54;11.93;;;2.67;;
74926;SDS011;63488;48.092;-1.640;2023-01-10T11:30:22;13.57;;;2.63;;
74926;SDS011;63488;48.092;-1.640;2023-01-10T11:32:51;13.10;;;2.42;;
74926;SDS011;63488;48.092;-1.640;2023-01-10T11:35:36;17.58;;;2.58;;
74926;SDS011;63488;48.092;-1.640;2023-01-10T11:38:05;13.10;;;2.88;;
74926;SDS011;63488;48.092;-1.640;2023-01-10T11:40:34;15.35;;;2.55;;
74926;SDS011;63488;48.092;-1.640;2023-01-10T11:45:46;19.75;;;3.08;;
74926;SDS011;63488;48.092;-1.640;2023-01-10T11:48:20;11.95;;;2.72;;
74926;SDS011;63488;48.092;-1.640;2023-01-10T11:56:08;17.33;;;3.17;;
74926;SDS011;63488;48.092;-1.640;2023-01-10T11:58:34;16.77;;;2.97;;
74926;SDS011;63488;48.092;-1.640;2023-01-10T12:01:00;16.55;;;3.08;;
74926;SDS011;63488;48.092;-1.640;2023-01-10T12:03:32;15.55;;;3.15;;
74926;SDS011;63488;48.092;-1.640;2023-01-10T12:06:08;14.68;;;3.40;;
74926;SDS011;63488;48.092;-1.640;2023-01-10T12:08:34;23.85;;;3.38;;
74926;SDS011;63488;48.092;-1.640;2023-01-10T12:11:34;18.95;;;2.80;;
74926;SDS011;63488;48.092;-1.640;2023-01-10T12:13:53;15.52;;;2.65;;
74926;SDS011;63488;48.092;-1.640;2023-01-10T12:16:23;20.50;;;3.38;;
74926;SDS011;63488;48.092;-1.640;2023-01-10T12:21:15;17.92;;;3.13;;
74926;SDS011;63488;48.092;-1.640;2023-01-10T12:23:42;18.20;;;2.95;;
74926;SDS011;63488;48.092;-1.640;2023-01-10T12:26:08;15.85;;;3.15;;
74926;SDS011;63488;48.092;-1.640;2023-01-10T12:28:37;18.55;;;2.90;;
74926;SDS011;63488;48.092;-1.640;2023-01-10T12:31:03;17.10;;;3.20;;
74926;SDS011;63488;48.092;-1.640;2023-01-10T12:33:34;18.80;;;3.03;;
74926;SDS011;63488;48.092;-1.640;2023-01-10T12:36:09;17.83;;;2.97;;
74926;SDS011;63488;48.092;-1.640;2023-01-10T12:38:41;18.50;;;3.42;;
74926;SDS011;63488;48.092;-1.640;2023-01-10T12:41:51;17.33;;;3.67;;
74926;SDS011;63488;48.092;-1.640;2023-01-10T12:44:32;20.20;;;3.10;;
74926;SDS011;63488;48.092;-1.640;2023-01-10T12:47:04;19.70;;;3.65;;
74926;SDS011;63488;48.092;-1.640;2023-01-10T12:49:35;18.55;;;3.00;;
74926;SDS011;63488;48.092;-1.640;2023-01-10T12:52:06;20.33;;;3.75;;
74926;SDS011;63488;48.092;-1.640;2023-01-10T12:54:35;15.80;;;2.83;;
74926;SDS011;63488;48.092;-1.640;2023-01-10T12:57:01;17.60;;;2.85;;
74926;SDS011;63488;48.092;-1.640;2023-01-10T12:59:30;21.73;;;3.53;;
74926;SDS011;63488;48.092;-1.640;2023-01-10T13:02:01;19.23;;;3.30;;
74926;SDS011;63488;48.092;-1.640;2023-01-10T13:04:29;17.23;;;2.90;;
74926;SDS011;63488;48.092;-1.640;2023-01-10T13:06:56;13.43;;;2.47;;
74926;SDS011;63488;48.092;-1.640;2023-01-10T13:09:23;17.92;;;3.13;;
74926;SDS011;63488;48.092;-1.640;2023-01-10T13:14:43;18.90;;;3.10;;
74926;SDS011;63488;48.092;-1.640;2023-01-10T13:17:54;13.18;;;2.97;;
74926;SDS011;63488;48.092;-1.640;2023-01-10T13:22:43;15.48;;;3.40;;
74926;SDS011;63488;48.092;-1.640;2023-01-10T13:28:04;15.93;;;3.05;;
74926;SDS011;63488;48.092;-1.640;2023-01-10T13:30:30;17.55;;;2.90;;
74926;SDS011;63488;48.092;-1.640;2023-01-10T13:33:00;16.95;;;2.50;;
74926;SDS011;63488;48.092;-1.640;2023-01-10T13:35:27;13.88;;;3.00;;
74926;SDS011;63488;48.092;-1.640;2023-01-10T13:38:00;18.90;;;2.55;;
74926;SDS011;63488;48.092;-1.640;2023-01-10T13:40:26;14.80;;;2.75;;
74926;SDS011;63488;48.092;-1.640;2023-01-10T13:45:44;14.38;;;2.50;;
74926;SDS011;63488;48.092;-1.640;2023-01-10T13:48:27;19.40;;;3.30;;
74926;SDS011;63488;48.092;-1.640;2023-01-10T13:50:57;15.50;;;2.65;;
74926;SDS011;63488;48.092;-1.640;2023-01-10T13:55:54;12.93;;;2.30;;
74926;SDS011;63488;48.092;-1.640;2023-01-10T14:04:18;16.88;;;2.83;;
74926;SDS011;63488;48.092;-1.640;2023-01-10T14:06:46;14.90;;;2.30;;
74926;SDS011;63488;48.092;-1.640;2023-01-10T14:14:14;14.27;;;2.15;;
74926;SDS011;63488;48.092;-1.640;2023-01-10T14:16:42;16.65;;;2.58;;
74926;SDS011;63488;48.092;-1.640;2023-01-10T14:21:50;11.18;;;2.05;;
74926;SDS011;63488;48.092;-1.640;2023-01-10T14:26:48;13.10;;;2.03;;
74926;SDS011;63488;48.092;-1.640;2023-01-10T14:29:14;14.45;;;2.67;;
74926;SDS011;63488;48.092;-1.640;2023-01-10T14:31:48;11.32;;;1.63;;
74926;SDS011;63488;48.092;-1.640;2023-01-10T14:34:27;14.57;;;2.13;;
74926;SDS011;63488;48.092;-1.640;2023-01-10T14:36:56;11.38;;;2.15;;
74926;SDS011;63488;48.092;-1.640;2023-01-10T14:39:22;9.52;;;1.83;;
74926;SDS011;63488;48.092;-1.640;2023-01-10T14:41:48;12.13;;;2.20;;
74926;SDS011;63488;48.092;-1.640;2023-01-10T14:44:23;9.38;;;1.63;;
74926;SDS011;63488;48.092;-1.640;2023-01-10T14:46:54;8.85;;;1.75;;
74926;SDS011;63488;48.092;-1.640;2023-01-10T14:49:21;8.20;;;1.67;;
74926;SDS011;63488;48.092;-1.640;2023-01-10T14:51:47;8.65;;;1.77;;
74926;SDS011;63488;48.092;-1.640;2023-01-10T14:54:15;11.38;;;1.83;;
74926;SDS011;63488;48.092;-1.640;2023-01-10T14:56:45;10.50;;;2.20;;
74926;SDS011;63488;48.092;-1.640;2023-01-10T15:01:59;11.07;;;2.08;;
74926;SDS011;63488;48.092;-1.640;2023-01-10T15:04:28;14.10;;;2.38;;
74926;SDS011;63488;48.092;-1.640;2023-01-10T15:09:19;17.02;;;2.80;;
74926;SDS011;63488;48.092;-1.640;2023-01-10T15:11:46;9.98;;;2.25;;
74926;SDS011;63488;48.092;-1.640;2023-01-10T15:14:13;13.10;;;2.30;;
74926;SDS011;63488;48.092;-1.640;2023-01-10T15:16:42;10.63;;;2.20;;
74926;SDS011;63488;48.092;-1.640;2023-01-10T15:19:17;11.18;;;2.13;;
74926;SDS011;63488;48.092;-1.640;2023-01-10T15:21:44;10.45;;;2.25;;
74926;SDS011;63488;48.092;-1.640;2023-01-10T15:26:53;5.90;;;1.30;;
74926;SDS011;63488;48.092;-1.640;2023-01-10T15:29:22;9.40;;;1.63;;
74926;SDS011;63488;48.092;-1.640;2023-01-10T15:31:48;5.45;;;1.52;;
74926;SDS011;63488;48.092;-1.640;2023-01-10T15:34:14;7.68;;;1.80;;
74926;SDS011;63488;48.092;-1.640;2023-01-10T15:36:59;7.43;;;1.40;;
74926;SDS011;63488;48.092;-1.640;2023-01-10T15:39:34;8.52;;;1.55;;
74926;SDS011;63488;48.092;-1.640;2023-01-10T15:42:00;7.65;;;1.48;;
74926;SDS011;63488;48.092;-1.640;2023-01-10T15:46:59;6.65;;;1.50;;
74926;SDS011;63488;48.092;-1.640;2023-01-10T15:49:25;7.18;;;1.27;;
74926;SDS011;63488;48.092;-1.640;2023-01-10T15:51:50;5.18;;;1.05;;
74926;SDS011;63488;48.092;-1.640;2023-01-10T15:59:20;6.80;;;1.40;;
74926;SDS011;63488;48.092;-1.640;2023-01-10T16:01:57;5.50;;;0.88;;
74926;SDS011;63488;48.092;-1.640;2023-01-10T16:04:23;5.43;;;1.20;;
74926;SDS011;63488;48.092;-1.640;2023-01-10T16:06:49;7.00;;;1.08;;
74926;SDS011;63488;48.092;-1.640;2023-01-10T16:09:18;5.22;;;1.17;;
74926;SDS011;63488;48.092;-1.640;2023-01-10T16:11:47;5.18;;;1.30;;
74926;SDS011;63488;48.092;-1.640;2023-01-10T16:14:32;4.57;;;1.10;;
74926;SDS011;63488;48.092;-1.640;2023-01-10T16:16:58;6.45;;;1.40;;
74926;SDS011;63488;48.092;-1.640;2023-01-10T16:19:23;8.52;;;1.27;;
74926;SDS011;63488;48.092;-1.640;2023-01-10T16:21:49;7.68;;;1.75;;
74926;SDS011;63488;48.092;-1.640;2023-01-10T16:24:17;12.45;;;1.80;;
74926;SDS011;63488;48.092;-1.640;2023-01-10T16:26:43;5.53;;;1.55;;
74926;SDS011;63488;48.092;-1.640;2023-01-10T16:29:09;6.88;;;1.63;;